createdAt,value
2022-12-29T00:00:21.882Z,3.72
2022-12-29T00:02:49.082Z,3.87
2022-12-29T00:05:18.105Z,3.98
2022-12-29T00:07:45.358Z,4.55
2022-12-29T00:10:12.505Z,4.41
2022-12-29T00:12:39.708Z,4.36
2022-12-29T00:15:08.870Z,4.54
2022-12-29T00:17:36.006Z,4.61
2022-12-29T00:20:04.146Z,4.51
2022-12-29T00:22:32.848Z,4.54
2022-12-29T00:25:02.219Z,4.55
2022-12-29T00:27:30.624Z,4.89
2022-12-29T00:29:58.995Z,4.97
2022-12-29T00:32:26.187Z,4.61
2022-12-29T00:34:53.308Z,4.79
2022-12-29T00:37:20.960Z,4.51
2022-12-29T00:39:49.680Z,4.45
2022-12-29T00:42:16.823Z,4.57
2022-12-29T00:44:44.720Z,4.62
2022-12-29T00:47:12.162Z,4.30
2022-12-29T00:49:39.324Z,4.53
2022-12-29T00:52:09.161Z,4.75
2022-12-29T00:54:38.249Z,4.40
2022-12-29T00:57:09.183Z,4.43
2022-12-29T00:59:36.970Z,3.92
2022-12-29T01:02:04.483Z,4.10
2022-12-29T01:04:32.704Z,4.23
2022-12-29T01:07:00.290Z,3.66
2022-12-29T01:09:27.622Z,3.46
2022-12-29T01:11:57.359Z,3.42
2022-12-29T01:14:29.306Z,3.59
2022-12-29T01:16:57.776Z,3.17
2022-12-29T01:19:25.766Z,3.40
2022-12-29T01:21:53.243Z,3.09
2022-12-29T01:24:21.786Z,3.25
2022-12-29T01:26:49.955Z,3.06
2022-12-29T01:29:17.506Z,3.33
2022-12-29T01:31:48.137Z,3.53
2022-12-29T01:34:15.402Z,3.46
2022-12-29T01:36:43.423Z,3.61
2022-12-29T01:39:11.029Z,3.66
2022-12-29T01:41:38.220Z,4.02
2022-12-29T01:44:38.365Z,4.06
2022-12-29T01:47:09.806Z,4.24
2022-12-29T01:49:37.145Z,4.52
2022-12-29T01:52:08.643Z,4.18
2022-12-29T01:54:42.272Z,4.05
2022-12-29T01:57:14.585Z,3.96
2022-12-29T01:59:50.183Z,3.78
2022-12-29T02:02:19.269Z,3.97
2022-12-29T02:04:47.400Z,4.07
2022-12-29T02:07:19.777Z,3.88
2022-12-29T02:09:50.267Z,3.96
2022-12-29T02:12:21.043Z,4.33
2022-12-29T02:14:55.823Z,4.12
2022-12-29T02:17:42.944Z,3.62
2022-12-29T02:20:48.621Z,3.67
2022-12-29T02:23:54.283Z,3.24
2022-12-29T02:26:40.224Z,3.32
2022-12-29T02:29:41.351Z,3.54
2022-12-29T02:32:19.904Z,3.41
2022-12-29T02:34:56.222Z,3.72
2022-12-29T02:37:31.010Z,3.17
2022-12-29T02:40:07.316Z,3.49
2022-12-29T02:42:47.320Z,3.17
2022-12-29T02:45:22.803Z,2.98
2022-12-29T02:48:02.848Z,3.04
2022-12-29T02:50:39.520Z,2.43
2022-12-29T02:53:12.007Z,2.19
2022-12-29T02:55:39.082Z,2.94
2022-12-29T02:58:17.727Z,2.42
2022-12-29T03:00:58.864Z,2.29
2022-12-29T03:03:47.427Z,2.44
2022-12-29T03:06:32.671Z,1.98
2022-12-29T03:09:19.138Z,2.36
2022-12-29T03:11:59.281Z,2.28
2022-12-29T03:14:34.339Z,2.27
2022-12-29T03:17:09.677Z,2.30
2022-12-29T03:19:45.481Z,2.34
2022-12-29T03:22:19.116Z,2.35
2022-12-29T03:24:52.063Z,2.45
2022-12-29T03:27:24.318Z,2.46
2022-12-29T03:29:56.181Z,2.22
2022-12-29T03:32:28.409Z,2.17
2022-12-29T03:34:59.676Z,2.29
2022-12-29T03:37:32.260Z,2.29
2022-12-29T03:39:59.944Z,2.33
2022-12-29T03:42:32.456Z,2.35
2022-12-29T03:44:59.602Z,2.12
2022-12-29T03:47:27.381Z,2.16
2022-12-29T03:49:55.942Z,2.35
2022-12-29T03:52:23.057Z,2.47
2022-12-29T03:54:50.203Z,2.31
2022-12-29T03:57:17.275Z,2.13
2022-12-29T03:59:44.301Z,2.30
2022-12-29T04:02:11.680Z,2.14
2022-12-29T04:04:39.077Z,2.28
2022-12-29T04:07:07.680Z,2.22
2022-12-29T04:09:34.819Z,2.32
2022-12-29T04:12:01.943Z,2.25
2022-12-29T04:14:29.178Z,2.15
2022-12-29T04:16:56.299Z,2.06
2022-12-29T04:19:23.458Z,2.00
2022-12-29T04:21:50.693Z,2.03
2022-12-29T04:24:19.386Z,2.08
2022-12-29T04:26:46.729Z,2.11
2022-12-29T04:29:13.926Z,2.15
2022-12-29T04:31:41.582Z,2.01
2022-12-29T04:34:09.302Z,2.42
2022-12-29T04:36:36.480Z,2.15
2022-12-29T04:39:03.750Z,2.85
2022-12-29T04:41:32.539Z,2.37
2022-12-29T04:43:59.803Z,2.42
2022-12-29T04:46:26.913Z,2.46
2022-12-29T04:48:54.046Z,2.33
2022-12-29T04:51:21.221Z,2.11
2022-12-29T04:53:48.378Z,2.28
2022-12-29T04:56:15.581Z,2.47
2022-12-29T04:58:44.238Z,2.51
2022-12-29T05:01:11.442Z,2.49
2022-12-29T05:03:38.693Z,2.86
2022-12-29T05:06:06.640Z,2.95
2022-12-29T05:08:34.725Z,2.66
2022-12-29T05:11:02.021Z,2.99
2022-12-29T05:13:29.217Z,2.97
2022-12-29T05:15:57.823Z,2.97
2022-12-29T05:18:25.117Z,3.00
2022-12-29T05:20:52.404Z,3.12
2022-12-29T05:23:19.501Z,2.75
2022-12-29T05:25:46.619Z,2.87
2022-12-29T05:28:14.240Z,2.89
2022-12-29T05:30:41.849Z,2.97
2022-12-29T05:33:10.438Z,3.20
2022-12-29T05:35:37.571Z,3.13
2022-12-29T05:38:04.618Z,2.87
2022-12-29T05:40:31.760Z,2.77
2022-12-29T05:43:00.184Z,2.99
2022-12-29T05:45:27.440Z,3.01
2022-12-29T05:47:54.619Z,3.08
2022-12-29T05:50:23.268Z,3.18
2022-12-29T05:52:50.450Z,3.04
2022-12-29T05:55:17.709Z,2.82
2022-12-29T05:57:45.819Z,2.90
2022-12-29T06:00:14.490Z,2.83
2022-12-29T06:02:42.324Z,2.92
2022-12-29T06:05:10.321Z,3.19
2022-12-29T06:07:38.900Z,2.97
2022-12-29T06:10:07.381Z,3.02
2022-12-29T06:12:34.478Z,2.69
2022-12-29T06:15:01.581Z,2.66
2022-12-29T06:17:28.718Z,2.91
2022-12-29T06:19:55.878Z,3.20
2022-12-29T06:22:23.027Z,2.92
2022-12-29T06:24:51.944Z,3.00
2022-12-29T06:27:19.043Z,2.74
2022-12-29T06:29:46.205Z,2.55
2022-12-29T06:32:13.345Z,3.28
2022-12-29T06:34:41.310Z,2.64
2022-12-29T06:37:09.617Z,2.61
2022-12-29T06:39:36.713Z,2.82
2022-12-29T06:42:05.633Z,2.72
2022-12-29T06:44:32.731Z,2.62
2022-12-29T06:46:59.929Z,2.65
2022-12-29T06:49:27.052Z,2.72
2022-12-29T06:51:54.233Z,3.29
2022-12-29T06:54:21.457Z,2.69
2022-12-29T06:56:48.635Z,2.40
2022-12-29T06:59:17.153Z,2.43
2022-12-29T07:01:44.714Z,2.31
2022-12-29T07:04:11.939Z,2.16
2022-12-29T07:06:39.238Z,2.36
2022-12-29T07:09:06.419Z,2.24
2022-12-29T07:11:33.661Z,2.11
2022-12-29T07:14:04.168Z,1.87
2022-12-29T07:16:33.265Z,1.97
2022-12-29T07:19:01.339Z,2.08
2022-12-29T07:21:28.357Z,2.17
2022-12-29T07:23:56.099Z,2.00
2022-12-29T07:26:23.437Z,1.99
2022-12-29T07:28:50.536Z,1.97
2022-12-29T07:31:20.243Z,2.20
2022-12-29T07:33:49.277Z,2.35
2022-12-29T07:36:17.820Z,1.96
2022-12-29T07:38:45.061Z,2.05
2022-12-29T07:41:12.571Z,2.31
2022-12-29T07:43:40.023Z,2.13
2022-12-29T07:46:07.300Z,2.44
2022-12-29T07:48:34.386Z,2.30
2022-12-29T07:51:03.057Z,2.32
2022-12-29T07:53:30.215Z,2.17
2022-12-29T07:55:57.761Z,2.27
2022-12-29T07:58:25.016Z,2.33
2022-12-29T08:00:54.796Z,2.40
2022-12-29T08:03:22.214Z,2.36
2022-12-29T08:05:49.607Z,2.49
2022-12-29T08:08:18.297Z,2.42
2022-12-29T08:10:45.583Z,2.53
2022-12-29T08:13:12.777Z,2.42
2022-12-29T08:15:40.082Z,2.56
2022-12-29T08:18:07.377Z,2.35
2022-12-29T08:20:34.593Z,2.45
2022-12-29T08:23:01.674Z,2.25
2022-12-29T08:25:30.280Z,2.33
2022-12-29T08:27:57.457Z,2.34
2022-12-29T08:30:24.740Z,2.17
2022-12-29T08:32:51.923Z,1.94
2022-12-29T08:35:19.063Z,2.00
2022-12-29T08:37:46.256Z,2.12
2022-12-29T08:40:13.458Z,2.15
2022-12-29T08:42:42.121Z,2.24
2022-12-29T08:45:10.214Z,2.21
2022-12-29T08:47:37.447Z,2.18
2022-12-29T08:50:05.985Z,2.49
2022-12-29T08:52:33.233Z,2.26
2022-12-29T08:55:00.358Z,2.35
2022-12-29T08:57:27.757Z,2.64
2022-12-29T08:59:56.455Z,2.16
2022-12-29T09:02:24.559Z,2.15
2022-12-29T09:04:52.746Z,2.17
2022-12-29T09:07:20.053Z,2.18
2022-12-29T09:09:47.299Z,2.14
2022-12-29T09:12:14.410Z,1.96
2022-12-29T09:14:41.509Z,2.20
2022-12-29T09:17:10.339Z,1.94
2022-12-29T09:19:37.887Z,2.00
2022-12-29T09:22:05.171Z,2.17
2022-12-29T09:24:32.466Z,2.12
2022-12-29T09:26:59.908Z,1.96
2022-12-29T09:29:27.010Z,2.00
2022-12-29T09:31:54.365Z,2.09
2022-12-29T09:34:23.475Z,2.00
2022-12-29T09:36:51.255Z,1.96
2022-12-29T09:39:18.554Z,2.40
2022-12-29T09:41:53.915Z,2.62
2022-12-29T09:44:30.909Z,2.34
2022-12-29T09:47:00.297Z,2.60
2022-12-29T09:49:40.078Z,2.34
2022-12-29T09:52:16.584Z,2.43
2022-12-29T09:55:00.541Z,2.34
2022-12-29T09:57:37.490Z,2.43
2022-12-29T10:00:12.674Z,2.30
2022-12-29T10:02:44.883Z,2.41
2022-12-29T10:05:28.168Z,2.27
2022-12-29T10:08:13.974Z,2.00
2022-12-29T10:10:54.875Z,2.02
2022-12-29T10:13:37.114Z,2.15
2022-12-29T10:16:13.310Z,2.31
2022-12-29T10:19:11.367Z,2.46
2022-12-29T10:21:57.966Z,2.49
2022-12-29T10:24:29.929Z,2.16
2022-12-29T10:27:00.586Z,2.20
2022-12-29T10:29:37.547Z,2.38
2022-12-29T10:32:14.482Z,2.20
2022-12-29T10:34:51.141Z,2.17
2022-12-29T10:37:34.570Z,1.70
2022-12-29T10:40:15.233Z,1.88
2022-12-29T10:42:47.306Z,2.15
2022-12-29T10:45:17.821Z,2.14
2022-12-29T10:47:54.840Z,2.17
2022-12-29T10:50:22.225Z,1.70
2022-12-29T10:52:52.484Z,1.79
2022-12-29T10:55:26.133Z,1.89
2022-12-29T10:57:53.804Z,2.21
2022-12-29T11:00:23.006Z,1.96
2022-12-29T11:03:27.901Z,2.14
2022-12-29T11:06:03.135Z,1.77
2022-12-29T11:08:37.717Z,2.15
2022-12-29T11:11:06.941Z,2.47
2022-12-29T11:13:39.200Z,2.26
2022-12-29T11:16:07.232Z,2.20
2022-12-29T11:18:37.939Z,2.14
2022-12-29T11:21:07.958Z,2.27
2022-12-29T11:23:39.165Z,2.06
2022-12-29T11:26:30.146Z,1.97
2022-12-29T11:29:24.681Z,2.52
2022-12-29T11:31:54.018Z,2.12
2022-12-29T11:34:24.261Z,2.16
2022-12-29T11:36:55.047Z,1.83
2022-12-29T11:39:39.583Z,1.97
2022-12-29T11:42:15.281Z,2.00
2022-12-29T11:44:47.119Z,1.99
2022-12-29T11:47:24.896Z,1.74
2022-12-29T11:49:58.062Z,2.11
2022-12-29T11:52:29.425Z,1.84
2022-12-29T11:54:58.963Z,2.01
2022-12-29T11:57:27.225Z,2.07
2022-12-29T11:59:56.006Z,2.00
2022-12-29T12:02:43.727Z,1.99
2022-12-29T12:05:26.623Z,1.97
2022-12-29T12:08:00.961Z,2.31
2022-12-29T12:10:36.200Z,1.91
2022-12-29T12:13:15.765Z,2.04
2022-12-29T12:15:56.418Z,2.28
2022-12-29T12:18:35.823Z,2.13
2022-12-29T12:21:11.862Z,2.28
2022-12-29T12:24:02.603Z,2.87
2022-12-29T12:26:38.138Z,3.43
2022-12-29T12:29:16.917Z,3.32
2022-12-29T12:31:50.670Z,3.13
2022-12-29T12:34:25.860Z,2.90
2022-12-29T12:37:13.913Z,3.01
2022-12-29T12:39:53.992Z,2.63
2022-12-29T12:42:42.866Z,3.01
2022-12-29T12:45:44.909Z,3.89
2022-12-29T12:48:34.757Z,5.16
2022-12-29T12:51:17.003Z,3.31
2022-12-29T12:54:07.328Z,2.52
2022-12-29T12:56:53.143Z,2.36
2022-12-29T12:59:38.419Z,2.24
2022-12-29T13:02:25.096Z,2.44
2022-12-29T13:05:20.042Z,2.17
2022-12-29T13:08:07.944Z,2.28
2022-12-29T13:10:45.927Z,2.44
2022-12-29T13:13:50.568Z,2.23
2022-12-29T13:16:30.622Z,2.40
2022-12-29T13:19:05.031Z,2.08
2022-12-29T13:22:00.095Z,2.55
2022-12-29T13:24:45.834Z,2.15
2022-12-29T13:27:23.997Z,2.33
2022-12-29T13:30:02.996Z,2.35
2022-12-29T13:32:51.596Z,2.56
2022-12-29T13:35:36.975Z,2.88
2022-12-29T13:38:13.429Z,3.09
2022-12-29T13:40:47.857Z,2.79
2022-12-29T13:43:18.940Z,2.85
2022-12-29T13:45:56.771Z,2.56
2022-12-29T13:48:40.965Z,2.96
2022-12-29T13:51:11.168Z,3.05
2022-12-29T13:53:56.082Z,2.61
2022-12-29T13:56:33.197Z,2.63
2022-12-29T13:59:13.134Z,2.59
2022-12-29T14:01:49.796Z,2.30
2022-12-29T14:04:24.554Z,3.14
2022-12-29T14:07:03.262Z,3.33
2022-12-29T14:09:46.874Z,3.00
2022-12-29T14:12:37.896Z,3.04
2022-12-29T14:15:25.509Z,2.83
2022-12-29T14:18:13.236Z,2.54
2022-12-29T14:20:53.219Z,2.48
2022-12-29T14:23:39.035Z,2.44
2022-12-29T14:26:15.985Z,2.59
2022-12-29T14:28:45.337Z,2.71
2022-12-29T14:31:37.157Z,2.80
2022-12-29T14:34:39.535Z,2.83
2022-12-29T14:37:26.984Z,3.56
2022-12-29T14:40:07.677Z,3.30
2022-12-29T14:42:35.176Z,3.54
2022-12-29T14:45:08.846Z,2.96
2022-12-29T14:47:39.407Z,2.96
2022-12-29T14:50:09.667Z,3.24
2022-12-29T14:52:49.040Z,3.06
2022-12-29T14:55:41.359Z,3.07
2022-12-29T14:58:18.632Z,3.99
2022-12-29T15:00:47.765Z,4.55
2022-12-29T15:03:20.826Z,3.60
2022-12-29T15:05:52.758Z,3.83
2022-12-29T15:08:25.797Z,5.58
2022-12-29T15:10:58.071Z,3.96
2022-12-29T15:13:35.515Z,4.44
2022-12-29T15:16:02.911Z,4.11
2022-12-29T15:18:32.404Z,3.87
2022-12-29T15:21:03.176Z,3.39
2022-12-29T15:23:35.604Z,3.28
2022-12-29T15:26:08.407Z,3.69
2022-12-29T15:28:41.481Z,2.98
2022-12-29T15:31:15.345Z,2.93
2022-12-29T15:33:46.355Z,2.98
2022-12-29T15:36:19.056Z,3.23
2022-12-29T15:38:48.172Z,3.29
2022-12-29T15:41:30.931Z,3.44
2022-12-29T15:44:15.550Z,3.17
2022-12-29T15:46:42.784Z,3.15
2022-12-29T15:49:14.925Z,3.19
2022-12-29T15:51:43.328Z,2.81
2022-12-29T15:54:19.283Z,2.86
2022-12-29T15:56:48.933Z,3.24
2022-12-29T15:59:25.950Z,3.60
2022-12-29T16:01:54.511Z,3.23
2022-12-29T16:04:22.825Z,3.27
2022-12-29T16:06:59.016Z,3.20
2022-12-29T16:09:35.346Z,7.15
2022-12-29T16:12:07.505Z,7.40
2022-12-29T16:14:42.343Z,5.55
2022-12-29T16:17:17.567Z,3.79
2022-12-29T16:19:52.684Z,4.11
2022-12-29T16:22:28.936Z,3.81
2022-12-29T16:25:04.812Z,3.47
2022-12-29T16:27:40.843Z,4.06
2022-12-29T16:30:20.906Z,5.16
2022-12-29T16:32:49.438Z,6.77
2022-12-29T16:35:21.353Z,5.90
2022-12-29T16:37:49.692Z,11.22
2022-12-29T16:40:31.401Z,10.16
2022-12-29T16:43:01.025Z,8.23
2022-12-29T16:46:06.276Z,5.94
2022-12-29T16:48:37.687Z,5.19
2022-12-29T16:51:13.823Z,4.99
2022-12-29T16:53:48.261Z,6.50
2022-12-29T16:56:20.161Z,5.26
2022-12-29T16:58:50.059Z,5.68
2022-12-29T17:01:17.505Z,5.43
2022-12-29T17:03:51.280Z,5.48
2022-12-29T17:06:20.423Z,5.72
2022-12-29T17:08:48.977Z,5.63
2022-12-29T17:11:30.682Z,6.56
2022-12-29T17:13:57.922Z,6.19
2022-12-29T17:16:25.152Z,6.38
2022-12-29T17:18:53.083Z,6.76
2022-12-29T17:21:20.221Z,6.75
2022-12-29T17:23:47.345Z,7.00
2022-12-29T17:26:14.601Z,6.97
2022-12-29T17:28:43.461Z,5.30
2022-12-29T17:31:12.329Z,5.37
2022-12-29T17:33:41.045Z,5.82
2022-12-29T17:36:09.680Z,5.18
2022-12-29T17:38:36.981Z,5.07
2022-12-29T17:41:04.850Z,5.23
2022-12-29T17:43:37.040Z,5.36
2022-12-29T17:46:08.085Z,5.17
2022-12-29T17:48:35.467Z,4.93
2022-12-29T17:51:02.860Z,4.67
2022-12-29T17:53:31.321Z,5.22
2022-12-29T17:55:58.639Z,4.94
2022-12-29T17:58:28.560Z,4.80
2022-12-29T18:00:58.842Z,5.15
2022-12-29T18:03:31.120Z,5.14
2022-12-29T18:05:59.255Z,4.90
2022-12-29T18:08:26.542Z,4.85
2022-12-29T18:10:55.404Z,4.60
2022-12-29T18:13:27.187Z,5.08
2022-12-29T18:15:57.709Z,5.52
2022-12-29T18:18:28.628Z,6.04
2022-12-29T18:20:59.923Z,5.41
2022-12-29T18:23:29.407Z,5.43
2022-12-29T18:26:01.736Z,5.58
2022-12-29T18:28:29.659Z,5.26
2022-12-29T18:30:59.150Z,5.50
2022-12-29T18:33:29.594Z,5.88
2022-12-29T18:35:59.046Z,5.82
2022-12-29T18:38:26.602Z,5.78
2022-12-29T18:40:54.435Z,5.23
2022-12-29T18:43:21.866Z,4.98
2022-12-29T18:45:49.552Z,5.08
2022-12-29T18:48:19.048Z,4.82
2022-12-29T18:50:49.143Z,5.29
2022-12-29T18:53:18.103Z,4.76
2022-12-29T18:55:47.083Z,4.33
2022-12-29T18:58:15.047Z,4.35
2022-12-29T19:00:43.455Z,4.81
2022-12-29T19:03:13.819Z,4.89
2022-12-29T19:05:42.879Z,4.58
2022-12-29T19:08:12.791Z,4.14
2022-12-29T19:10:43.456Z,3.82
2022-12-29T19:13:16.485Z,3.66
2022-12-29T19:15:44.502Z,3.77
2022-12-29T19:18:47.434Z,3.77
2022-12-29T19:21:06.154Z,3.51
2022-12-29T19:23:34.798Z,3.62
2022-12-29T19:26:01.913Z,5.65
2022-12-29T19:28:29.844Z,5.83
2022-12-29T19:31:01.428Z,5.40
2022-12-29T19:33:29.192Z,4.61
2022-12-29T19:36:00.745Z,4.37
2022-12-29T19:38:28.093Z,4.00
2022-12-29T19:40:57.246Z,3.68
2022-12-29T19:43:24.782Z,3.31
2022-12-29T19:45:52.359Z,3.19
2022-12-29T19:48:23.014Z,3.38
2022-12-29T19:50:50.473Z,3.37
2022-12-29T19:53:17.690Z,3.32
2022-12-29T19:55:46.212Z,3.21
2022-12-29T19:58:16.073Z,3.17
2022-12-29T20:00:43.877Z,2.73
2022-12-29T20:03:12.450Z,2.99
2022-12-29T20:05:40.833Z,3.85
2022-12-29T20:08:09.772Z,4.34
2022-12-29T20:10:37.341Z,3.62
2022-12-29T20:13:04.714Z,3.51
2022-12-29T20:15:33.428Z,3.84
2022-12-29T20:18:16.302Z,4.67
2022-12-29T20:20:43.574Z,4.21
2022-12-29T20:23:11.439Z,8.74
2022-12-29T20:25:47.168Z,3.61
2022-12-29T20:28:16.329Z,3.38
2022-12-29T20:30:45.133Z,4.30
2022-12-29T20:33:13.036Z,4.06
2022-12-29T20:35:40.217Z,6.97
2022-12-29T20:38:07.472Z,5.98
2022-12-29T20:40:44.139Z,5.07
2022-12-29T20:43:15.830Z,4.27
2022-12-29T20:45:44.740Z,4.15
2022-12-29T20:48:12.250Z,4.50
2022-12-29T20:50:39.911Z,4.42
2022-12-29T20:53:07.031Z,4.62
2022-12-29T20:55:34.802Z,5.07
2022-12-29T21:00:50.975Z,5.08
2022-12-29T21:03:18.511Z,5.19
2022-12-29T21:05:45.929Z,5.23
2022-12-29T21:08:13.189Z,5.73
2022-12-29T21:10:40.505Z,7.14
2022-12-29T21:13:07.631Z,6.41
2022-12-29T21:15:34.888Z,4.92
2022-12-29T21:18:03.714Z,6.67
2022-12-29T21:20:31.175Z,5.88
2022-12-29T21:22:59.625Z,4.59
2022-12-29T21:25:27.973Z,5.63
2022-12-29T21:27:55.111Z,4.18
2022-12-29T21:30:22.230Z,3.99
2022-12-29T21:32:49.849Z,3.84
2022-12-29T21:35:18.692Z,3.86
2022-12-29T21:37:45.931Z,4.07
2022-12-29T21:40:13.310Z,2.90
2022-12-29T21:42:40.450Z,2.69
2022-12-29T21:45:11.965Z,2.43
2022-12-29T21:47:42.493Z,1.88
2022-12-29T21:50:09.719Z,1.85
2022-12-29T21:52:38.330Z,1.93
2022-12-29T21:55:06.698Z,2.68
2022-12-29T21:57:34.191Z,3.31
2022-12-29T22:00:01.869Z,2.41
2022-12-29T22:02:29.219Z,1.23
2022-12-29T22:04:56.650Z,1.34
2022-12-29T22:07:23.994Z,1.46
2022-12-29T22:09:53.389Z,1.85
2022-12-29T22:12:20.817Z,1.77
2022-12-29T22:14:47.970Z,1.78
2022-12-29T22:17:16.163Z,2.24
2022-12-29T22:19:46.256Z,2.60
2022-12-29T22:22:13.512Z,2.68
2022-12-29T22:24:40.690Z,1.89
2022-12-29T22:27:09.773Z,1.72
2022-12-29T22:29:37.435Z,1.36
2022-12-29T22:32:05.331Z,1.60
2022-12-29T22:34:32.788Z,2.05
2022-12-29T22:37:00.092Z,1.96
2022-12-29T22:39:27.268Z,3.52
2022-12-29T22:41:54.449Z,3.18
2022-12-29T22:44:24.270Z,3.07
2022-12-29T22:46:51.507Z,3.03
2022-12-29T22:49:19.679Z,2.47
2022-12-29T22:51:46.812Z,2.85
2022-12-29T22:54:14.177Z,3.92
2022-12-29T22:56:41.820Z,7.85
2022-12-29T22:59:10.288Z,6.88
2022-12-29T23:01:39.874Z,5.47
2022-12-29T23:04:57.243Z,7.60
2022-12-29T23:06:54.790Z,9.08
2022-12-29T23:09:23.169Z,7.87
2022-12-29T23:11:50.829Z,6.15
2022-12-29T23:14:18.112Z,5.92
2022-12-29T23:16:46.952Z,5.52
2022-12-29T23:19:15.272Z,4.99
2022-12-29T23:21:42.407Z,4.32
2022-12-29T23:24:13.854Z,4.52
2022-12-29T23:26:44.051Z,4.62
2022-12-29T23:29:14.889Z,4.79
2022-12-29T23:31:42.691Z,4.62
2022-12-29T23:34:13.813Z,3.70
2022-12-29T23:36:41.212Z,4.68
2022-12-29T23:39:09.390Z,4.19
2022-12-29T23:41:37.549Z,3.93
2022-12-29T23:44:04.953Z,4.05
2022-12-29T23:46:32.199Z,3.85
2022-12-29T23:48:59.810Z,3.08
2022-12-29T23:51:28.736Z,3.16
2022-12-29T23:53:55.909Z,3.43
2022-12-29T23:56:24.311Z,3.12
2022-12-29T23:58:52.290Z,3.09
